createdAt,value
2017-03-12T00:00:05.170Z,1.75
2017-03-12T00:01:18.208Z,1.68
2017-03-12T00:02:31.270Z,1.61
2017-03-12T00:03:44.370Z,1.63
2017-03-12T00:04:57.433Z,1.58
2017-03-12T00:06:10.513Z,1.6
2017-03-12T00:07:23.555Z,1.64
2017-03-12T00:08:36.653Z,1.56
2017-03-12T00:09:49.354Z,1.5
2017-03-12T00:11:02.059Z,1.57
2017-03-12T00:12:15.166Z,1.49
2017-03-12T00:13:28.238Z,1.52
2017-03-12T00:14:41.321Z,1.56
2017-03-12T00:15:54.383Z,1.57
2017-03-12T00:17:07.448Z,1.52
2017-03-12T00:18:20.569Z,1.46
2017-03-12T00:19:33.262Z,1.43
2017-03-12T00:20:46.336Z,1.45
2017-03-12T00:21:59.434Z,1.39
2017-03-12T00:23:12.518Z,1.42
2017-03-12T00:24:25.613Z,1.46
2017-03-12T00:25:38.666Z,1.36
2017-03-12T00:26:51.737Z,1.34
2017-03-12T00:28:04.841Z,1.3
2017-03-12T00:29:17.872Z,1.31
2017-03-12T00:30:30.554Z,1.32
2017-03-12T00:31:43.649Z,1.28
2017-03-12T00:32:56.987Z,1.32
2017-03-12T00:34:10.044Z,1.32
2017-03-12T00:35:23.104Z,1.24
2017-03-12T00:36:35.826Z,1.28
2017-03-12T00:37:48.925Z,1.27
2017-03-12T00:39:02.000Z,1.28
2017-03-12T00:40:15.097Z,1.22
2017-03-12T00:41:28.161Z,1.27
2017-03-12T00:42:41.256Z,1.24
2017-03-12T00:43:54.322Z,1.28
2017-03-12T00:45:06.593Z,1.22
2017-03-12T00:46:19.668Z,1.2
2017-03-12T00:47:32.339Z,1.09
2017-03-12T00:48:45.416Z,1.07
2017-03-12T00:49:58.535Z,1.13
2017-03-12T00:51:11.609Z,1.2
2017-03-12T00:52:24.294Z,1.09
2017-03-12T00:53:37.356Z,1.16
2017-03-12T00:54:50.442Z,1.04
2017-03-12T00:56:03.514Z,1.16
2017-03-12T00:57:16.205Z,1.04
2017-03-12T00:58:29.255Z,1.06
2017-03-12T00:59:42.330Z,1.06
2017-03-12T01:00:55.402Z,1.03
2017-03-12T01:02:08.561Z,1.03
2017-03-12T01:03:21.618Z,1.03
2017-03-12T01:04:34.581Z,1.09
2017-03-12T01:05:47.675Z,1.02
2017-03-12T01:07:00.358Z,1.07
2017-03-12T01:08:13.072Z,1.03
2017-03-12T01:09:26.164Z,1
2017-03-12T01:10:39.242Z,1.04
2017-03-12T01:11:52.287Z,0.94
2017-03-12T01:13:04.959Z,1.02
2017-03-12T01:14:18.022Z,0.91
2017-03-12T01:15:31.102Z,0.96
2017-03-12T01:16:44.211Z,0.94
2017-03-12T01:17:57.281Z,0.96
2017-03-12T01:19:10.360Z,0.89
2017-03-12T01:20:23.452Z,0.88
2017-03-12T01:21:36.548Z,0.81
2017-03-12T01:22:49.269Z,0.89
2017-03-12T01:24:01.968Z,0.81
2017-03-12T01:25:15.071Z,0.85
2017-03-12T01:26:28.138Z,0.84
2017-03-12T01:27:41.277Z,0.82
2017-03-12T01:28:53.981Z,0.84
2017-03-12T01:30:07.075Z,0.81
2017-03-12T01:31:20.144Z,0.84
2017-03-12T01:32:33.233Z,0.77
2017-03-12T01:33:46.292Z,0.77
2017-03-12T01:34:58.962Z,0.7
2017-03-12T01:36:12.007Z,0.73
2017-03-12T01:37:25.072Z,0.73
2017-03-12T01:38:38.212Z,0.7
2017-03-12T01:39:51.265Z,0.67
2017-03-12T01:41:04.361Z,0.66
2017-03-12T01:42:17.411Z,0.63
2017-03-12T01:43:30.103Z,0.66
2017-03-12T01:44:43.181Z,0.67
2017-03-12T01:45:56.291Z,0.68
2017-03-12T01:47:09.368Z,0.61
2017-03-12T01:48:22.431Z,0.64
2017-03-12T01:49:34.699Z,0.52
2017-03-12T01:50:47.799Z,0.55
2017-03-12T01:52:00.841Z,0.49
2017-03-12T01:53:13.875Z,0.47
2017-03-12T01:54:26.937Z,0.49
2017-03-12T01:55:39.633Z,0.45
2017-03-12T01:56:52.685Z,0.44
2017-03-12T01:58:05.796Z,0.44
2017-03-12T01:59:18.932Z,0.36
2017-03-12T02:00:31.241Z,0.39
2017-03-12T02:01:44.300Z,0.37
2017-03-12T02:02:57.387Z,0.37
2017-03-12T02:04:10.061Z,0.45
2017-03-12T02:05:23.149Z,0.42
2017-03-12T02:06:36.208Z,0.33
2017-03-12T02:07:48.871Z,0.4
2017-03-12T02:09:01.925Z,0.31
2017-03-12T02:10:14.617Z,0.34
2017-03-12T02:11:27.303Z,0.23
2017-03-12T02:12:39.972Z,0.33
2017-03-12T02:13:53.003Z,0.24
2017-03-12T02:15:05.674Z,0.23
2017-03-12T02:16:18.742Z,0.29
2017-03-12T02:17:31.816Z,0.36
2017-03-12T02:18:44.884Z,0.29
2017-03-12T02:19:57.983Z,0.27
2017-03-12T02:21:10.304Z,0.33
2017-03-12T02:22:23.396Z,0.31
2017-03-12T02:23:36.063Z,0.31
2017-03-12T02:24:49.134Z,0.23
2017-03-12T02:26:02.219Z,0.29
2017-03-12T02:27:15.279Z,0.29
2017-03-12T02:28:27.967Z,0.33
2017-03-12T02:29:40.695Z,0.33
2017-03-12T02:30:53.393Z,0.34
2017-03-12T02:32:06.044Z,0.29
2017-03-12T02:33:19.108Z,0.26
2017-03-12T02:34:31.821Z,0.31
2017-03-12T02:35:44.101Z,0.36
2017-03-12T02:36:57.201Z,0.27
2017-03-12T02:38:10.288Z,0.2
2017-03-12T02:39:22.588Z,0.23
2017-03-12T02:40:35.327Z,0.18
2017-03-12T02:41:48.386Z,0.18
2017-03-12T02:43:01.128Z,0.23
2017-03-12T02:44:13.818Z,0.2
2017-03-12T02:45:26.898Z,0.09
2017-03-12T02:46:39.190Z,0.05
2017-03-12T02:47:52.263Z,0.02
2017-03-12T02:49:05.327Z,0.11
2017-03-12T02:50:18.405Z,0.09
2017-03-12T02:51:31.523Z,0.06
2017-03-12T02:52:44.614Z,0.01
2017-03-12T02:53:57.761Z,-0.06
2017-03-12T02:55:10.488Z,-0.06
2017-03-12T02:56:23.565Z,-0.02
2017-03-12T02:57:36.644Z,-0.05
2017-03-12T02:58:49.719Z,-0.06
2017-03-12T03:00:02.816Z,-0.13
2017-03-12T03:01:15.519Z,-0.03
2017-03-12T03:02:28.561Z,-0.05
2017-03-12T03:03:41.635Z,-0.15
2017-03-12T03:04:54.695Z,-0.18
2017-03-12T03:06:07.744Z,-0.24
2017-03-12T03:07:20.789Z,-0.17
2017-03-12T03:08:33.494Z,-0.18
2017-03-12T03:09:46.612Z,-0.27
2017-03-12T03:10:59.659Z,-0.18
2017-03-12T03:12:12.327Z,-0.26
2017-03-12T03:13:25.405Z,-0.24
2017-03-12T03:14:38.448Z,-0.27
2017-03-12T03:15:51.546Z,-0.38
2017-03-12T03:17:04.239Z,-0.35
2017-03-12T03:18:17.315Z,-0.31
2017-03-12T03:19:30.383Z,-0.31
2017-03-12T03:20:43.077Z,-0.31
2017-03-12T03:21:56.153Z,-0.31
2017-03-12T03:23:08.841Z,-0.38
2017-03-12T03:24:21.907Z,-0.33
2017-03-12T03:25:34.986Z,-0.26
2017-03-12T03:26:48.107Z,-0.33
2017-03-12T03:28:01.195Z,-0.3
2017-03-12T03:29:14.287Z,-0.33
2017-03-12T03:30:27.341Z,-0.3
2017-03-12T03:31:39.638Z,-0.39
2017-03-12T03:32:52.709Z,-0.38
2017-03-12T03:34:05.409Z,-0.44
2017-03-12T03:35:18.530Z,-0.42
2017-03-12T03:36:31.223Z,-0.42
2017-03-12T03:37:44.357Z,-0.39
2017-03-12T03:38:57.033Z,-0.44
2017-03-12T03:40:10.126Z,-0.45
2017-03-12T03:41:23.185Z,-0.28
2017-03-12T03:42:36.245Z,-0.41
2017-03-12T03:43:49.337Z,-0.28
2017-03-12T03:45:02.036Z,-0.28
2017-03-12T03:46:15.134Z,-0.27
2017-03-12T03:47:27.457Z,-0.3
2017-03-12T03:48:40.133Z,-0.41
2017-03-12T03:49:53.201Z,-0.41
2017-03-12T03:51:06.268Z,-0.35
2017-03-12T03:52:19.326Z,-0.3
2017-03-12T03:53:32.008Z,-0.28
2017-03-12T03:54:45.050Z,-0.27
2017-03-12T03:55:57.726Z,-0.28
2017-03-12T03:57:10.793Z,-0.28
2017-03-12T03:58:23.867Z,-0.26
2017-03-12T03:59:36.570Z,-0.26
2017-03-12T04:00:49.641Z,-0.3
2017-03-12T04:02:02.703Z,-0.39
2017-03-12T04:03:15.797Z,-0.36
2017-03-12T04:04:28.845Z,-0.36
2017-03-12T04:05:41.147Z,-0.33
2017-03-12T04:06:54.220Z,-0.38
2017-03-12T04:08:07.292Z,-0.28
2017-03-12T04:09:20.351Z,-0.42
2017-03-12T04:10:33.009Z,-0.39
2017-03-12T04:11:46.075Z,-0.44
2017-03-12T04:12:59.142Z,-0.41
2017-03-12T04:14:12.212Z,-0.44
2017-03-12T04:15:25.534Z,-0.42
2017-03-12T04:16:38.627Z,-0.36
2017-03-12T04:17:51.723Z,-0.46
2017-03-12T04:19:04.783Z,-0.53
2017-03-12T04:20:17.843Z,-0.44
2017-03-12T04:21:30.938Z,-0.46
2017-03-12T04:22:43.692Z,-0.46
2017-03-12T04:23:56.815Z,-0.59
2017-03-12T04:25:09.872Z,-0.51
2017-03-12T04:26:22.982Z,-0.54
2017-03-12T04:27:36.039Z,-0.48
2017-03-12T04:28:49.102Z,-0.54
2017-03-12T04:30:02.167Z,-0.56
2017-03-12T04:31:15.252Z,-0.56
2017-03-12T04:32:28.358Z,-0.57
2017-03-12T04:33:41.422Z,-0.62
2017-03-12T04:34:54.493Z,-0.63
2017-03-12T04:36:07.565Z,-0.57
2017-03-12T04:37:20.664Z,-0.57
2017-03-12T04:38:33.334Z,-0.66
2017-03-12T04:39:46.408Z,-0.57
2017-03-12T04:40:59.104Z,-0.64
2017-03-12T04:42:12.053Z,-0.64
2017-03-12T04:43:25.144Z,-0.62
2017-03-12T04:44:38.209Z,-0.64
2017-03-12T04:45:51.235Z,-0.63
2017-03-12T04:47:04.277Z,-0.62
2017-03-12T04:48:17.372Z,-0.67
2017-03-12T04:49:30.444Z,-0.67
2017-03-12T04:50:43.598Z,-0.66
2017-03-12T04:51:56.707Z,-0.72
2017-03-12T04:53:09.781Z,-0.7
2017-03-12T04:54:22.458Z,-0.7
2017-03-12T04:55:35.502Z,-0.66
2017-03-12T04:56:48.594Z,-0.66
2017-03-12T04:58:01.647Z,-0.72
2017-03-12T04:59:14.360Z,-0.74
2017-03-12T05:00:27.410Z,-0.75
2017-03-12T05:01:40.084Z,-0.78
2017-03-12T05:02:53.148Z,-0.77
2017-03-12T05:04:06.202Z,-0.84
2017-03-12T05:05:19.268Z,-0.72
2017-03-12T05:06:31.969Z,-0.81
2017-03-12T05:07:45.053Z,-0.78
2017-03-12T05:08:58.111Z,-0.75
2017-03-12T05:10:11.170Z,-0.87
2017-03-12T05:11:24.275Z,-0.84
2017-03-12T05:12:37.352Z,-0.84
2017-03-12T05:13:50.407Z,-0.85
2017-03-12T05:15:03.489Z,-0.8
2017-03-12T05:16:16.156Z,-0.82
2017-03-12T05:17:28.821Z,-0.85
2017-03-12T05:18:41.519Z,-0.84
2017-03-12T05:19:54.240Z,-0.82
2017-03-12T05:21:07.343Z,-0.82
2017-03-12T05:22:20.419Z,-0.85
2017-03-12T05:23:33.512Z,-0.82
2017-03-12T05:24:46.594Z,-0.85
2017-03-12T05:25:59.302Z,-0.81
2017-03-12T05:27:12.374Z,-0.8
2017-03-12T05:28:25.466Z,-0.85
2017-03-12T05:29:38.514Z,-0.84
2017-03-12T05:30:51.588Z,-0.84
2017-03-12T05:32:04.628Z,-0.87
2017-03-12T05:33:17.708Z,-0.84
2017-03-12T05:34:30.765Z,-0.82
2017-03-12T05:35:43.884Z,-0.84
2017-03-12T05:36:56.567Z,-0.89
2017-03-12T05:38:09.633Z,-0.89
2017-03-12T05:39:22.682Z,-0.91
2017-03-12T05:40:35.770Z,-0.94
2017-03-12T05:41:49.116Z,-0.91
2017-03-12T05:43:02.190Z,-0.85
2017-03-12T05:44:15.279Z,-0.84
2017-03-12T05:45:28.336Z,-0.91
2017-03-12T05:46:41.403Z,-0.85
2017-03-12T05:47:54.527Z,-0.91
2017-03-12T05:49:07.226Z,-0.89
2017-03-12T05:50:20.267Z,-0.85
2017-03-12T05:51:32.941Z,-0.85
2017-03-12T05:52:46.054Z,-0.85
2017-03-12T05:53:59.110Z,-0.84
2017-03-12T05:55:11.781Z,-0.87
2017-03-12T05:56:24.820Z,-0.82
2017-03-12T05:57:37.892Z,-0.81
2017-03-12T05:58:50.966Z,-0.78
2017-03-12T06:00:03.658Z,-0.91
2017-03-12T06:01:16.733Z,-0.84
2017-03-12T06:02:29.856Z,-0.78
2017-03-12T06:03:42.546Z,-0.82
2017-03-12T06:04:55.591Z,-0.77
2017-03-12T06:06:08.662Z,-0.74
2017-03-12T06:07:21.338Z,-0.78
2017-03-12T06:08:34.010Z,-0.77
2017-03-12T06:09:47.075Z,-0.81
2017-03-12T06:11:00.120Z,-0.77
2017-03-12T06:12:12.835Z,-0.75
2017-03-12T06:13:25.930Z,-0.75
2017-03-12T06:14:38.835Z,-0.77
2017-03-12T06:15:51.934Z,-0.77
2017-03-12T06:17:05.004Z,-0.67
2017-03-12T06:18:18.055Z,-0.62
2017-03-12T06:19:31.143Z,-0.72
2017-03-12T06:20:44.223Z,-0.67
2017-03-12T06:21:57.313Z,-0.64
2017-03-12T06:23:10.011Z,-0.63
2017-03-12T06:24:23.053Z,-0.62
2017-03-12T06:25:36.176Z,-0.6
2017-03-12T06:26:49.249Z,-0.59
2017-03-12T06:28:02.342Z,-0.57
2017-03-12T06:29:15.416Z,-0.59
2017-03-12T06:30:28.105Z,-0.54
2017-03-12T06:31:41.176Z,-0.56
2017-03-12T06:32:54.255Z,-0.54
2017-03-12T06:34:07.297Z,-0.54
2017-03-12T06:35:19.991Z,-0.48
2017-03-12T06:36:33.113Z,-0.59
2017-03-12T06:37:46.208Z,-0.38
2017-03-12T06:38:58.930Z,-0.39
2017-03-12T06:40:11.997Z,-0.33
2017-03-12T06:41:25.068Z,-0.38
2017-03-12T06:42:38.118Z,-0.31
2017-03-12T06:43:51.202Z,-0.33
2017-03-12T06:45:04.276Z,-0.33
2017-03-12T06:46:17.347Z,-0.35
2017-03-12T06:47:29.640Z,-0.36
2017-03-12T06:48:42.722Z,-0.28
2017-03-12T06:49:55.792Z,-0.27
2017-03-12T06:51:08.865Z,-0.3
2017-03-12T06:52:22.009Z,-0.2
2017-03-12T06:53:34.782Z,-0.15
2017-03-12T06:54:47.851Z,-0.23
2017-03-12T06:56:00.923Z,-0.17
2017-03-12T06:57:14.271Z,-0.09
2017-03-12T06:58:27.356Z,-0.07
2017-03-12T06:59:40.056Z,0
2017-03-12T07:00:53.152Z,0.01
2017-03-12T07:02:06.240Z,0.08
2017-03-12T07:03:19.351Z,0.08
2017-03-12T07:04:32.469Z,0.06
2017-03-12T07:05:45.582Z,0.19
2017-03-12T07:06:58.678Z,0.24
2017-03-12T07:08:11.357Z,0.27
2017-03-12T07:09:24.419Z,0.24
2017-03-12T07:10:37.519Z,0.29
2017-03-12T07:11:50.232Z,0.33
2017-03-12T07:13:02.938Z,0.36
2017-03-12T07:14:15.236Z,0.36
2017-03-12T07:15:27.908Z,0.39
2017-03-12T07:16:40.620Z,0.42
2017-03-12T07:17:53.715Z,0.52
2017-03-12T07:19:06.767Z,0.49
2017-03-12T07:20:19.489Z,0.55
2017-03-12T07:21:32.582Z,0.58
2017-03-12T07:22:45.670Z,0.56
2017-03-12T07:23:58.722Z,0.7
2017-03-12T07:25:11.849Z,0.77
2017-03-12T07:26:24.543Z,0.76
2017-03-12T07:27:37.614Z,0.76
2017-03-12T07:28:50.703Z,0.86
2017-03-12T07:30:04.030Z,0.95
2017-03-12T07:31:16.698Z,1.09
2017-03-12T07:32:29.816Z,1.14
2017-03-12T07:33:42.869Z,1.24
2017-03-12T07:34:55.937Z,1.24
2017-03-12T07:36:08.989Z,1.31
2017-03-12T07:37:21.732Z,1.45
2017-03-12T07:38:34.446Z,1.53
2017-03-12T07:39:47.562Z,1.6
2017-03-12T07:41:00.286Z,1.75
2017-03-12T07:42:13.337Z,1.85
2017-03-12T07:43:26.079Z,1.84
2017-03-12T07:44:39.148Z,1.82
2017-03-12T07:45:51.854Z,1.85
2017-03-12T07:47:04.938Z,1.89
2017-03-12T07:48:18.047Z,1.98
2017-03-12T07:49:31.113Z,1.93
2017-03-12T07:50:43.812Z,1.92
2017-03-12T07:51:56.880Z,1.97
2017-03-12T07:53:09.995Z,2
2017-03-12T07:54:22.724Z,2.04
2017-03-12T07:55:35.773Z,1.98
2017-03-12T07:56:48.817Z,2.03
2017-03-12T07:58:01.484Z,2.07
2017-03-12T07:59:14.558Z,2.04
2017-03-12T08:00:27.271Z,2.14
2017-03-12T08:01:39.964Z,2.14
2017-03-12T08:02:53.067Z,2.12
2017-03-12T08:04:05.788Z,2.25
2017-03-12T08:05:18.863Z,2.21
2017-03-12T08:06:31.558Z,2.3
2017-03-12T08:07:44.302Z,2.39
2017-03-12T08:08:57.422Z,2.43
2017-03-12T08:10:10.517Z,2.37
2017-03-12T08:11:23.613Z,2.51
2017-03-12T08:12:36.726Z,2.46
2017-03-12T08:13:49.876Z,2.62
2017-03-12T08:15:02.930Z,2.61
2017-03-12T08:16:16.018Z,2.61
2017-03-12T08:17:28.697Z,2.69
2017-03-12T08:18:41.784Z,2.77
2017-03-12T08:19:54.884Z,2.82
2017-03-12T08:21:07.946Z,2.91
2017-03-12T08:22:19.451Z,3.01
2017-03-12T08:23:32.157Z,2.95
2017-03-12T08:24:44.848Z,3.05
2017-03-12T08:25:57.964Z,3.06
2017-03-12T08:27:10.676Z,3.06
2017-03-12T08:28:23.714Z,3.11
2017-03-12T08:29:36.801Z,3.26
2017-03-12T08:30:49.881Z,3.3
2017-03-12T08:32:02.561Z,3.33
2017-03-12T08:33:15.260Z,3.3
2017-03-12T08:34:27.576Z,3.34
2017-03-12T08:35:40.232Z,3.45
2017-03-12T08:36:53.277Z,3.37
2017-03-12T08:38:06.367Z,3.4
2017-03-12T08:39:19.447Z,3.43
2017-03-12T08:40:32.532Z,3.45
2017-03-12T08:41:45.592Z,3.41
2017-03-12T08:42:58.723Z,3.53
2017-03-12T08:44:11.383Z,3.46
2017-03-12T08:45:23.669Z,3.52
2017-03-12T08:46:36.772Z,3.49
2017-03-12T08:47:49.850Z,3.49
2017-03-12T08:49:02.954Z,3.5
2017-03-12T08:50:16.014Z,3.55
2017-03-12T08:51:28.719Z,3.53
2017-03-12T08:52:41.791Z,3.7
2017-03-12T08:53:54.887Z,3.7
2017-03-12T08:55:07.941Z,3.74
2017-03-12T08:56:20.986Z,3.73
2017-03-12T08:57:34.032Z,3.81
2017-03-12T08:58:47.104Z,3.86
2017-03-12T09:00:00.148Z,3.76
2017-03-12T09:01:12.862Z,3.86
2017-03-12T09:02:25.958Z,3.89
2017-03-12T09:03:39.040Z,3.96
2017-03-12T09:04:52.161Z,3.94
2017-03-12T09:06:05.227Z,3.96
2017-03-12T09:07:18.317Z,3.94
2017-03-12T09:08:31.371Z,3.95
2017-03-12T09:09:44.436Z,4.06
2017-03-12T09:10:57.487Z,4.06
2017-03-12T09:12:09.407Z,4.02
2017-03-12T09:13:22.127Z,3.99
2017-03-12T09:14:35.174Z,3.96
2017-03-12T09:15:48.265Z,4.09
2017-03-12T09:17:01.344Z,4.04
2017-03-12T09:18:14.436Z,4.09
2017-03-12T09:19:27.561Z,4.04
2017-03-12T09:20:40.250Z,4.03
2017-03-12T09:21:52.941Z,4.04
2017-03-12T09:23:06.025Z,4.12
2017-03-12T09:24:19.145Z,4.09
2017-03-12T09:25:32.229Z,4.06
2017-03-12T09:26:45.332Z,4.09
2017-03-12T09:27:58.383Z,4.04
2017-03-12T09:29:11.095Z,4.13
2017-03-12T09:30:24.188Z,4.04
2017-03-12T09:31:37.308Z,4.22
2017-03-12T09:32:50.390Z,4.2
2017-03-12T09:34:03.475Z,4.2
2017-03-12T09:35:16.149Z,4.28
2017-03-12T09:36:28.829Z,4.27
2017-03-12T09:37:41.899Z,4.21
2017-03-12T09:38:54.948Z,4.31
2017-03-12T09:40:07.633Z,4.36
2017-03-12T09:41:20.687Z,4.32
2017-03-12T09:42:33.383Z,4.31
2017-03-12T09:43:46.444Z,4.3
2017-03-12T09:44:59.491Z,4.34
2017-03-12T09:46:12.584Z,4.4
2017-03-12T09:47:25.662Z,4.39
2017-03-12T09:48:38.366Z,4.39
2017-03-12T09:49:51.504Z,4.4
2017-03-12T09:51:04.578Z,4.43
2017-03-12T09:52:17.647Z,4.48
2017-03-12T09:53:30.745Z,4.45
2017-03-12T09:54:43.455Z,4.43
2017-03-12T09:55:56.801Z,4.45
2017-03-12T09:57:09.848Z,4.43
2017-03-12T09:58:22.525Z,4.39
2017-03-12T09:59:35.202Z,4.46
2017-03-12T10:00:48.293Z,4.46
2017-03-12T10:02:01.331Z,4.5
2017-03-12T10:03:14.390Z,4.58
2017-03-12T10:04:27.459Z,4.63
2017-03-12T10:05:40.525Z,4.64
2017-03-12T10:06:53.200Z,4.78
2017-03-12T10:08:06.293Z,4.76
2017-03-12T10:09:19.431Z,4.71
2017-03-12T10:10:32.110Z,4.84
2017-03-12T10:11:45.214Z,4.89
2017-03-12T10:12:58.294Z,5.04
2017-03-12T10:14:11.397Z,5.12
2017-03-12T10:15:24.497Z,5.16
2017-03-12T10:16:37.597Z,5.25
2017-03-12T10:17:50.659Z,5.28
2017-03-12T10:19:03.752Z,5.33
2017-03-12T10:20:16.844Z,5.38
2017-03-12T10:21:29.951Z,5.37
2017-03-12T10:22:42.640Z,5.36
2017-03-12T10:23:55.364Z,5.36
2017-03-12T10:25:08.439Z,5.47
2017-03-12T10:26:21.548Z,5.46
2017-03-12T10:27:34.228Z,5.4
2017-03-12T10:28:47.315Z,5.43
2017-03-12T10:30:00.371Z,5.54
2017-03-12T10:31:12.682Z,5.47
2017-03-12T10:32:25.763Z,5.46
2017-03-12T10:33:38.853Z,5.65
2017-03-12T10:34:51.970Z,5.44
2017-03-12T10:36:05.073Z,5.72
2017-03-12T10:37:18.221Z,5.65
2017-03-12T10:38:31.268Z,5.88
2017-03-12T10:39:44.331Z,5.9
2017-03-12T10:40:57.399Z,6.07
2017-03-12T10:42:10.469Z,6.1
2017-03-12T10:43:23.198Z,6.16
2017-03-12T10:44:35.878Z,6.29
2017-03-12T10:45:48.986Z,6.36
2017-03-12T10:47:02.067Z,6.52
2017-03-12T10:48:15.156Z,6.62
2017-03-12T10:49:28.245Z,6.72
2017-03-12T10:50:41.391Z,6.71
2017-03-12T10:51:54.474Z,6.75
2017-03-12T10:53:07.543Z,6.83
2017-03-12T10:54:20.617Z,6.93
2017-03-12T10:55:33.336Z,6.87
2017-03-12T10:56:46.506Z,6.89
2017-03-12T10:57:59.226Z,6.85
2017-03-12T10:59:11.920Z,6.85
2017-03-12T11:00:24.908Z,6.89
2017-03-12T11:01:37.957Z,6.89
2017-03-12T11:02:51.059Z,7.01
2017-03-12T11:04:04.146Z,6.95
2017-03-12T11:05:16.852Z,7.03
2017-03-12T11:06:29.127Z,7.08
2017-03-12T11:07:42.245Z,7.05
2017-03-12T11:08:54.941Z,6.95
2017-03-12T11:10:07.636Z,6.95
2017-03-12T11:11:20.730Z,6.95
2017-03-12T11:12:32.670Z,6.95
2017-03-12T11:13:45.774Z,6.89
2017-03-12T11:14:58.870Z,7.08
2017-03-12T11:16:11.958Z,7.11
2017-03-12T11:17:25.054Z,7.18
2017-03-12T11:18:38.184Z,7.23
2017-03-12T11:19:51.276Z,7.25
2017-03-12T11:21:04.391Z,7.29
2017-03-12T11:22:17.487Z,7.31
2017-03-12T11:23:30.187Z,7.29
2017-03-12T11:24:43.258Z,7.33
2017-03-12T11:25:56.338Z,7.46
2017-03-12T11:27:09.445Z,7.41
2017-03-12T11:28:22.180Z,7.48
2017-03-12T11:29:34.919Z,7.51
2017-03-12T11:30:47.637Z,7.58
2017-03-12T11:32:00.717Z,7.5
2017-03-12T11:33:13.080Z,7.47
2017-03-12T11:34:26.175Z,7.47
2017-03-12T11:35:39.267Z,7.47
2017-03-12T11:36:52.335Z,7.47
2017-03-12T11:38:05.437Z,7.53
2017-03-12T11:39:18.501Z,7.43
2017-03-12T11:40:31.573Z,7.4
2017-03-12T11:41:44.249Z,7.48
2017-03-12T11:42:57.352Z,7.5
2017-03-12T11:44:10.034Z,7.51
2017-03-12T11:45:23.091Z,7.48
2017-03-12T11:46:35.812Z,7.39
2017-03-12T11:47:48.885Z,7.33
2017-03-12T11:49:01.927Z,7.39
2017-03-12T11:50:15.018Z,7.25
2017-03-12T11:51:28.138Z,7.29
2017-03-12T11:52:40.443Z,7.25
2017-03-12T11:53:53.510Z,7.22
2017-03-12T11:55:06.576Z,7.25
2017-03-12T11:56:19.709Z,7.31
2017-03-12T11:57:31.651Z,7.29
2017-03-12T11:58:44.764Z,7.28
2017-03-12T11:59:57.860Z,7.21
2017-03-12T12:01:10.531Z,7.22
2017-03-12T12:02:23.584Z,7.14
2017-03-12T12:03:36.626Z,7.25
2017-03-12T12:04:49.703Z,7.22
2017-03-12T12:06:03.043Z,7.28
2017-03-12T12:07:15.714Z,7.23
2017-03-12T12:08:28.784Z,7.25
2017-03-12T12:09:41.460Z,7.26
2017-03-12T12:10:54.535Z,7.29
2017-03-12T12:12:07.600Z,7.23
2017-03-12T12:13:20.298Z,7.28
2017-03-12T12:14:33.394Z,7.22
2017-03-12T12:15:46.489Z,7.26
2017-03-12T12:16:59.607Z,7.25
2017-03-12T12:18:12.677Z,7.19
2017-03-12T12:19:25.740Z,7.23
2017-03-12T12:20:38.823Z,7.19
2017-03-12T12:21:51.911Z,7.22
2017-03-12T12:23:05.007Z,7.23
2017-03-12T12:24:18.135Z,7.23
2017-03-12T12:25:29.682Z,7.31
2017-03-12T12:26:42.749Z,7.28
2017-03-12T12:27:55.870Z,7.23
2017-03-12T12:29:08.940Z,7.22
2017-03-12T12:30:22.091Z,7.29
2017-03-12T12:31:34.778Z,7.29
2017-03-12T12:32:47.871Z,7.32
2017-03-12T12:34:00.945Z,7.22
2017-03-12T12:35:13.999Z,7.28
2017-03-12T12:36:26.664Z,7.4
2017-03-12T12:37:39.007Z,7.31
2017-03-12T12:38:52.907Z,7.36
2017-03-12T12:40:06.019Z,7.39
2017-03-12T12:41:18.367Z,7.37
2017-03-12T12:42:31.066Z,7.36
2017-03-12T12:43:44.193Z,7.33
2017-03-12T12:44:57.282Z,7.33
2017-03-12T12:46:10.035Z,7.37
2017-03-12T12:47:22.731Z,7.37
2017-03-12T12:48:35.795Z,7.36
2017-03-12T12:49:48.495Z,7.33
2017-03-12T12:51:01.592Z,7.25
2017-03-12T12:52:14.290Z,7.31
2017-03-12T12:53:26.638Z,7.25
2017-03-12T12:54:39.782Z,7.28
2017-03-12T12:55:52.882Z,7.14
2017-03-12T12:57:05.605Z,7.21
2017-03-12T12:58:18.741Z,7.21
2017-03-12T12:59:31.413Z,7.05
2017-03-12T13:00:44.504Z,7.08
2017-03-12T13:01:57.578Z,7.11
2017-03-12T13:03:10.278Z,7.21
2017-03-12T13:04:23.388Z,7.15
2017-03-12T13:05:36.445Z,7.1
2017-03-12T13:06:49.512Z,7.08
2017-03-12T13:08:02.602Z,7.13
2017-03-12T13:09:15.656Z,7.08
2017-03-12T13:10:28.398Z,7.1
2017-03-12T13:11:40.924Z,7.08
2017-03-12T13:12:54.033Z,7.07
2017-03-12T13:14:07.116Z,7.13
2017-03-12T13:15:20.239Z,7.15
2017-03-12T13:16:33.362Z,7.23
2017-03-12T13:17:46.446Z,7.14
2017-03-12T13:18:59.522Z,7.15
2017-03-12T13:20:12.645Z,7.26
2017-03-12T13:21:25.739Z,7.26
2017-03-12T13:22:38.835Z,7.29
2017-03-12T13:23:51.910Z,7.37
2017-03-12T13:25:04.975Z,7.32
2017-03-12T13:26:18.021Z,7.36
2017-03-12T13:27:31.060Z,7.33
2017-03-12T13:28:43.809Z,7.43
2017-03-12T13:29:56.929Z,7.31
2017-03-12T13:31:10.047Z,7.41
2017-03-12T13:32:23.129Z,7.43
2017-03-12T13:33:36.222Z,7.37
2017-03-12T13:34:49.267Z,7.41
2017-03-12T13:36:02.368Z,7.46
2017-03-12T13:37:15.438Z,7.36
2017-03-12T13:38:28.523Z,7.39
2017-03-12T13:39:41.597Z,7.47
2017-03-12T13:40:54.696Z,7.53
2017-03-12T13:42:07.414Z,7.5
2017-03-12T13:43:20.784Z,7.55
2017-03-12T13:44:33.103Z,7.53
2017-03-12T13:45:45.808Z,7.48
2017-03-12T13:46:58.876Z,7.5
2017-03-12T13:48:11.974Z,7.51
2017-03-12T13:49:25.047Z,7.5
2017-03-12T13:50:37.763Z,7.4
2017-03-12T13:51:50.837Z,7.43
2017-03-12T13:53:03.910Z,7.39
2017-03-12T13:54:16.997Z,7.37
2017-03-12T13:55:29.722Z,7.44
2017-03-12T13:56:42.850Z,7.37
2017-03-12T13:57:55.939Z,7.37
2017-03-12T13:59:09.052Z,7.32
2017-03-12T14:00:22.122Z,7.33
2017-03-12T14:01:34.822Z,7.39
2017-03-12T14:02:47.944Z,7.31
2017-03-12T14:04:01.022Z,7.33
2017-03-12T14:05:14.106Z,7.28
2017-03-12T14:06:27.185Z,7.25
2017-03-12T14:07:40.256Z,7.29
2017-03-12T14:08:53.331Z,7.36
2017-03-12T14:10:06.427Z,7.26
2017-03-12T14:11:18.747Z,7.37
2017-03-12T14:12:31.814Z,7.39
2017-03-12T14:13:44.111Z,7.28
2017-03-12T14:14:57.176Z,7.26
2017-03-12T14:16:09.844Z,7.26
2017-03-12T14:17:22.931Z,7.28
2017-03-12T14:18:36.021Z,7.28
2017-03-12T14:19:49.100Z,7.26
2017-03-12T14:21:02.211Z,7.31
2017-03-12T14:22:15.281Z,7.26
2017-03-12T14:23:28.385Z,7.22
2017-03-12T14:24:41.476Z,7.21
2017-03-12T14:25:54.164Z,7.11
2017-03-12T14:27:07.261Z,7.22
2017-03-12T14:28:20.370Z,7.19
2017-03-12T14:29:33.453Z,7.25
2017-03-12T14:30:46.601Z,7.22
2017-03-12T14:31:59.301Z,7.22
2017-03-12T14:33:12.371Z,7.15
2017-03-12T14:34:25.090Z,7.21
2017-03-12T14:35:38.179Z,7.14
2017-03-12T14:36:51.291Z,7.14
2017-03-12T14:38:04.388Z,7.07
2017-03-12T14:39:17.503Z,7.08
2017-03-12T14:40:30.565Z,7.1
2017-03-12T14:41:43.621Z,7.11
2017-03-12T14:42:56.693Z,7.1
2017-03-12T14:44:09.773Z,7.1
2017-03-12T14:45:22.499Z,7.13
2017-03-12T14:46:35.216Z,7.1
2017-03-12T14:47:48.295Z,7.1
2017-03-12T14:49:01.349Z,7.01
2017-03-12T14:50:14.410Z,7.08
2017-03-12T14:51:26.754Z,7.01
2017-03-12T14:52:38.679Z,6.92
2017-03-12T14:53:51.796Z,6.96
2017-03-12T14:55:04.875Z,6.87
2017-03-12T14:56:17.947Z,6.8
2017-03-12T14:57:30.665Z,6.77
2017-03-12T14:58:43.776Z,6.8
2017-03-12T14:59:56.857Z,6.68
2017-03-12T15:01:09.924Z,6.62
2017-03-12T15:02:23.066Z,6.62
2017-03-12T15:03:35.368Z,6.53
2017-03-12T15:04:48.065Z,6.44
2017-03-12T15:06:00.786Z,6.43
2017-03-12T15:07:13.472Z,6.36
2017-03-12T15:08:26.571Z,6.39
2017-03-12T15:09:38.464Z,6.29
2017-03-12T15:10:51.551Z,6.31
2017-03-12T15:12:04.633Z,6.29
2017-03-12T15:13:17.726Z,6.26
2017-03-12T15:14:30.409Z,6.2
2017-03-12T15:15:43.496Z,6.17
2017-03-12T15:16:56.592Z,6.19
2017-03-12T15:18:09.684Z,6.06
2017-03-12T15:19:22.381Z,6.01
2017-03-12T15:20:35.438Z,6.09
2017-03-12T15:21:48.500Z,6.1
2017-03-12T15:23:01.603Z,5.95
2017-03-12T15:24:14.678Z,5.91
2017-03-12T15:25:27.396Z,5.95
2017-03-12T15:26:39.717Z,5.94
2017-03-12T15:27:52.802Z,5.79
2017-03-12T15:29:05.883Z,5.76
2017-03-12T15:30:18.956Z,5.81
2017-03-12T15:31:32.099Z,5.72
2017-03-12T15:32:45.167Z,5.77
2017-03-12T15:33:57.842Z,5.64
2017-03-12T15:35:10.918Z,5.7
2017-03-12T15:36:24.009Z,5.55
2017-03-12T15:37:37.128Z,5.65
2017-03-12T15:38:49.826Z,5.49
2017-03-12T15:40:02.921Z,5.46
2017-03-12T15:41:15.989Z,5.4
2017-03-12T15:42:29.307Z,5.36
2017-03-12T15:43:42.022Z,5.2
2017-03-12T15:44:55.126Z,5.22
2017-03-12T15:46:07.818Z,5.1
2017-03-12T15:47:20.910Z,5.1
2017-03-12T15:48:33.997Z,4.95
2017-03-12T15:49:46.694Z,4.98
2017-03-12T15:50:59.798Z,4.9
2017-03-12T15:52:12.478Z,4.95
2017-03-12T15:53:25.169Z,4.89
2017-03-12T15:54:38.246Z,4.71
2017-03-12T15:55:51.293Z,4.78
2017-03-12T15:57:04.385Z,4.64
2017-03-12T15:58:17.484Z,4.58
2017-03-12T15:59:30.577Z,4.57
2017-03-12T16:00:43.301Z,4.5
2017-03-12T16:01:56.440Z,4.53
2017-03-12T16:03:09.116Z,4.42
2017-03-12T16:04:22.237Z,4.4
2017-03-12T16:05:35.363Z,4.31